sensor_id;sensor_type;location;lat;lon;timestamp;P1;durP1;ratioP1;P2;durP2;ratioP2
5981;SDS011;3018;48.730;9.336;2023-11-19T00:01:14;4.13;;;3.88;;
5981;SDS011;3018;48.730;9.336;2023-11-19T00:03:42;4.20;;;3.80;;
5981;SDS011;3018;48.730;9.336;2023-11-19T00:06:09;3.42;;;3.22;;
5981;SDS011;3018;48.730;9.336;2023-11-19T00:08:36;3.58;;;3.35;;
5981;SDS011;3018;48.730;9.336;2023-11-19T00:11:02;3.95;;;3.70;;
5981;SDS011;3018;48.730;9.336;2023-11-19T00:13:29;4.75;;;4.28;;
5981;SDS011;3018;48.730;9.336;2023-11-19T00:15:55;4.47;;;4.18;;
5981;SDS011;3018;48.730;9.336;2023-11-19T00:18:21;6.70;;;4.35;;
5981;SDS011;3018;48.730;9.336;2023-11-19T00:20:49;4.28;;;3.97;;
5981;SDS011;3018;48.730;9.336;2023-11-19T00:23:15;4.10;;;3.90;;
5981;SDS011;3018;48.730;9.336;2023-11-19T00:25:42;4.05;;;3.78;;
5981;SDS011;3018;48.730;9.336;2023-11-19T00:28:08;3.47;;;3.28;;
5981;SDS011;3018;48.730;9.336;2023-11-19T00:30:34;3.58;;;3.28;;
5981;SDS011;3018;48.730;9.336;2023-11-19T00:33:00;2.97;;;2.88;;
5981;SDS011;3018;48.730;9.336;2023-11-19T00:35:27;3.40;;;2.95;;
5981;SDS011;3018;48.730;9.336;2023-11-19T00:37:54;2.83;;;2.67;;
5981;SDS011;3018;48.730;9.336;2023-11-19T00:40:20;3.30;;;2.60;;
5981;SDS011;3018;48.730;9.336;2023-11-19T00:42:48;2.60;;;2.50;;
5981;SDS011;3018;48.730;9.336;2023-11-19T00:45:14;2.72;;;2.53;;
5981;SDS011;3018;48.730;9.336;2023-11-19T00:47:40;2.45;;;2.30;;
5981;SDS011;3018;48.730;9.336;2023-11-19T00:50:08;3.05;;;2.60;;
5981;SDS011;3018;48.730;9.336;2023-11-19T00:52:36;2.33;;;2.22;;
5981;SDS011;3018;48.730;9.336;2023-11-19T00:55:04;2.70;;;2.50;;
5981;SDS011;3018;48.730;9.336;2023-11-19T00:57:31;2.63;;;2.47;;
5981;SDS011;3018;48.730;9.336;2023-11-19T00:59:58;2.00;;;1.95;;
5981;SDS011;3018;48.730;9.336;2023-11-19T01:02:24;2.05;;;1.95;;
5981;SDS011;3018;48.730;9.336;2023-11-19T01:04:51;2.33;;;2.20;;
5981;SDS011;3018;48.730;9.336;2023-11-19T01:07:17;2.25;;;2.05;;
5981;SDS011;3018;48.730;9.336;2023-11-19T01:09:43;2.40;;;2.30;;
5981;SDS011;3018;48.730;9.336;2023-11-19T01:12:11;2.95;;;2.20;;
5981;SDS011;3018;48.730;9.336;2023-11-19T01:14:37;2.40;;;2.30;;
5981;SDS011;3018;48.730;9.336;2023-11-19T01:17:04;2.45;;;2.40;;
5981;SDS011;3018;48.730;9.336;2023-11-19T01:19:30;2.25;;;2.15;;
5981;SDS011;3018;48.730;9.336;2023-11-19T01:21:57;2.33;;;2.22;;
5981;SDS011;3018;48.730;9.336;2023-11-19T01:24:23;2.20;;;2.10;;
5981;SDS011;3018;48.730;9.336;2023-11-19T01:26:50;2.38;;;2.28;;
5981;SDS011;3018;48.730;9.336;2023-11-19T01:29:18;1.90;;;1.90;;
5981;SDS011;3018;48.730;9.336;2023-11-19T01:31:45;1.73;;;1.63;;
5981;SDS011;3018;48.730;9.336;2023-11-19T01:34:12;2.20;;;2.10;;
5981;SDS011;3018;48.730;9.336;2023-11-19T01:36:38;2.65;;;2.55;;
5981;SDS011;3018;48.730;9.336;2023-11-19T01:39:05;2.08;;;1.90;;
5981;SDS011;3018;48.730;9.336;2023-11-19T01:41:33;3.15;;;1.92;;
5981;SDS011;3018;48.730;9.336;2023-11-19T01:44:02;2.22;;;1.73;;
5981;SDS011;3018;48.730;9.336;2023-11-19T01:46:30;1.60;;;1.50;;
5981;SDS011;3018;48.730;9.336;2023-11-19T01:48:57;1.80;;;1.70;;
5981;SDS011;3018;48.730;9.336;2023-11-19T01:51:23;1.98;;;1.88;;
5981;SDS011;3018;48.730;9.336;2023-11-19T01:53:50;1.65;;;1.65;;
5981;SDS011;3018;48.730;9.336;2023-11-19T01:56:16;1.77;;;1.70;;
5981;SDS011;3018;48.730;9.336;2023-11-19T01:58:43;1.98;;;1.70;;
5981;SDS011;3018;48.730;9.336;2023-11-19T02:01:10;1.70;;;1.60;;
5981;SDS011;3018;48.730;9.336;2023-11-19T02:03:38;1.40;;;1.40;;
5981;SDS011;3018;48.730;9.336;2023-11-19T02:06:06;3.97;;;1.38;;
5981;SDS011;3018;48.730;9.336;2023-11-19T02:08:35;1.50;;;1.50;;
5981;SDS011;3018;48.730;9.336;2023-11-19T02:11:01;1.70;;;1.60;;
5981;SDS011;3018;48.730;9.336;2023-11-19T02:13:27;1.40;;;1.30;;
5981;SDS011;3018;48.730;9.336;2023-11-19T02:15:54;1.30;;;1.30;;
5981;SDS011;3018;48.730;9.336;2023-11-19T02:18:21;1.60;;;1.50;;
5981;SDS011;3018;48.730;9.336;2023-11-19T02:20:49;1.58;;;1.48;;
5981;SDS011;3018;48.730;9.336;2023-11-19T02:23:16;1.30;;;1.25;;
5981;SDS011;3018;48.730;9.336;2023-11-19T02:25:42;1.50;;;1.50;;
5981;SDS011;3018;48.730;9.336;2023-11-19T02:28:10;1.30;;;1.30;;
5981;SDS011;3018;48.730;9.336;2023-11-19T02:30:37;1.63;;;1.52;;
5981;SDS011;3018;48.730;9.336;2023-11-19T02:33:04;1.45;;;1.45;;
5981;SDS011;3018;48.730;9.336;2023-11-19T02:35:31;1.23;;;1.13;;
5981;SDS011;3018;48.730;9.336;2023-11-19T02:37:58;1.65;;;1.58;;
5981;SDS011;3018;48.730;9.336;2023-11-19T02:40:25;2.47;;;1.80;;
5981;SDS011;3018;48.730;9.336;2023-11-19T02:42:51;2.03;;;1.85;;
5981;SDS011;3018;48.730;9.336;2023-11-19T02:45:19;1.95;;;1.90;;
5981;SDS011;3018;48.730;9.336;2023-11-19T02:47:47;1.90;;;1.90;;
5981;SDS011;3018;48.730;9.336;2023-11-19T02:50:13;2.60;;;2.50;;
5981;SDS011;3018;48.730;9.336;2023-11-19T02:52:40;2.25;;;2.15;;
5981;SDS011;3018;48.730;9.336;2023-11-19T02:55:07;4.22;;;2.13;;
5981;SDS011;3018;48.730;9.336;2023-11-19T02:57:37;2.60;;;2.50;;
5981;SDS011;3018;48.730;9.336;2023-11-19T03:00:04;2.65;;;2.55;;
5981;SDS011;3018;48.730;9.336;2023-11-19T03:02:38;3.95;;;3.35;;
5981;SDS011;3018;48.730;9.336;2023-11-19T03:05:09;3.97;;;3.38;;
5981;SDS011;3018;48.730;9.336;2023-11-19T03:07:36;3.40;;;3.20;;
5981;SDS011;3018;48.730;9.336;2023-11-19T03:10:02;3.53;;;3.33;;
5981;SDS011;3018;48.730;9.336;2023-11-19T03:12:30;3.50;;;3.30;;
5981;SDS011;3018;48.730;9.336;2023-11-19T03:14:57;3.42;;;3.22;;
5981;SDS011;3018;48.730;9.336;2023-11-19T03:17:23;6.88;;;3.40;;
5981;SDS011;3018;48.730;9.336;2023-11-19T03:19:51;3.22;;;3.03;;
5981;SDS011;3018;48.730;9.336;2023-11-19T03:22:17;3.38;;;3.13;;
5981;SDS011;3018;48.730;9.336;2023-11-19T03:24:44;3.45;;;3.25;;
5981;SDS011;3018;48.730;9.336;2023-11-19T03:27:10;3.00;;;2.80;;
5981;SDS011;3018;48.730;9.336;2023-11-19T03:29:36;3.05;;;2.92;;
5981;SDS011;3018;48.730;9.336;2023-11-19T03:32:03;2.90;;;2.70;;
5981;SDS011;3018;48.730;9.336;2023-11-19T03:34:30;2.80;;;2.70;;
5981;SDS011;3018;48.730;9.336;2023-11-19T03:36:57;3.00;;;2.80;;
5981;SDS011;3018;48.730;9.336;2023-11-19T03:39:23;3.38;;;3.17;;
5981;SDS011;3018;48.730;9.336;2023-11-19T03:41:52;3.10;;;2.90;;
5981;SDS011;3018;48.730;9.336;2023-11-19T03:44:18;2.97;;;2.70;;
5981;SDS011;3018;48.730;9.336;2023-11-19T03:46:45;4.75;;;3.40;;
5981;SDS011;3018;48.730;9.336;2023-11-19T03:49:11;3.97;;;3.30;;
5981;SDS011;3018;48.730;9.336;2023-11-19T03:51:38;3.28;;;2.97;;
5981;SDS011;3018;48.730;9.336;2023-11-19T03:54:05;3.60;;;3.30;;
5981;SDS011;3018;48.730;9.336;2023-11-19T03:56:32;2.53;;;2.42;;
5981;SDS011;3018;48.730;9.336;2023-11-19T03:58:59;4.30;;;2.80;;
5981;SDS011;3018;48.730;9.336;2023-11-19T04:01:25;3.20;;;2.95;;
5981;SDS011;3018;48.730;9.336;2023-11-19T04:03:51;4.45;;;2.65;;
5981;SDS011;3018;48.730;9.336;2023-11-19T04:06:17;2.53;;;2.40;;
5981;SDS011;3018;48.730;9.336;2023-11-19T04:08:44;2.25;;;2.00;;
5981;SDS011;3018;48.730;9.336;2023-11-19T04:11:11;1.40;;;1.40;;
5981;SDS011;3018;48.730;9.336;2023-11-19T04:13:38;1.38;;;1.25;;
5981;SDS011;3018;48.730;9.336;2023-11-19T04:16:04;1.10;;;1.10;;
5981;SDS011;3018;48.730;9.336;2023-11-19T04:18:31;1.58;;;0.85;;
5981;SDS011;3018;48.730;9.336;2023-11-19T04:20:58;0.75;;;0.75;;
5981;SDS011;3018;48.730;9.336;2023-11-19T04:23:24;0.88;;;0.77;;
5981;SDS011;3018;48.730;9.336;2023-11-19T04:25:51;0.88;;;0.88;;
5981;SDS011;3018;48.730;9.336;2023-11-19T04:28:18;1.65;;;1.00;;
5981;SDS011;3018;48.730;9.336;2023-11-19T04:30:44;1.60;;;1.40;;
5981;SDS011;3018;48.730;9.336;2023-11-19T04:33:11;1.40;;;1.20;;
5981;SDS011;3018;48.730;9.336;2023-11-19T04:35:37;0.90;;;0.90;;
5981;SDS011;3018;48.730;9.336;2023-11-19T04:38:03;1.30;;;1.30;;
5981;SDS011;3018;48.730;9.336;2023-11-19T04:40:30;2.20;;;1.10;;
5981;SDS011;3018;48.730;9.336;2023-11-19T04:42:56;1.10;;;1.00;;
5981;SDS011;3018;48.730;9.336;2023-11-19T04:45:24;0.70;;;0.60;;
5981;SDS011;3018;48.730;9.336;2023-11-19T04:47:50;0.70;;;0.70;;
5981;SDS011;3018;48.730;9.336;2023-11-19T04:50:16;1.02;;;0.75;;
5981;SDS011;3018;48.730;9.336;2023-11-19T04:52:43;0.80;;;0.70;;
5981;SDS011;3018;48.730;9.336;2023-11-19T04:55:11;0.70;;;0.70;;
5981;SDS011;3018;48.730;9.336;2023-11-19T04:57:39;1.48;;;0.57;;
5981;SDS011;3018;48.730;9.336;2023-11-19T05:00:05;1.95;;;0.77;;
5981;SDS011;3018;48.730;9.336;2023-11-19T05:02:33;0.52;;;0.52;;
5981;SDS011;3018;48.730;9.336;2023-11-19T05:05:00;0.43;;;0.43;;
5981;SDS011;3018;48.730;9.336;2023-11-19T05:07:26;0.40;;;0.40;;
5981;SDS011;3018;48.730;9.336;2023-11-19T05:09:52;0.35;;;0.35;;
5981;SDS011;3018;48.730;9.336;2023-11-19T05:12:18;1.10;;;0.43;;
5981;SDS011;3018;48.730;9.336;2023-11-19T05:14:45;1.27;;;0.52;;
5981;SDS011;3018;48.730;9.336;2023-11-19T05:17:14;0.45;;;0.45;;
5981;SDS011;3018;48.730;9.336;2023-11-19T05:19:42;0.47;;;0.47;;
5981;SDS011;3018;48.730;9.336;2023-11-19T05:22:08;0.22;;;0.22;;
5981;SDS011;3018;48.730;9.336;2023-11-19T05:24:34;0.57;;;0.30;;
5981;SDS011;3018;48.730;9.336;2023-11-19T05:27:01;0.65;;;0.30;;
5981;SDS011;3018;48.730;9.336;2023-11-19T05:29:27;0.20;;;0.20;;
5981;SDS011;3018;48.730;9.336;2023-11-19T05:31:53;0.90;;;0.40;;
5981;SDS011;3018;48.730;9.336;2023-11-19T05:34:20;0.40;;;0.40;;
5981;SDS011;3018;48.730;9.336;2023-11-19T05:36:47;1.95;;;0.40;;
5981;SDS011;3018;48.730;9.336;2023-11-19T05:39:14;0.40;;;0.40;;
5981;SDS011;3018;48.730;9.336;2023-11-19T05:41:41;0.40;;;0.40;;
5981;SDS011;3018;48.730;9.336;2023-11-19T05:44:07;0.32;;;0.32;;
5981;SDS011;3018;48.730;9.336;2023-11-19T05:46:33;0.47;;;0.47;;
5981;SDS011;3018;48.730;9.336;2023-11-19T05:49:05;0.50;;;0.50;;
5981;SDS011;3018;48.730;9.336;2023-11-19T05:51:31;1.85;;;1.85;;
5981;SDS011;3018;48.730;9.336;2023-11-19T05:53:59;1.23;;;0.47;;
5981;SDS011;3018;48.730;9.336;2023-11-19T05:56:25;2.15;;;0.55;;
5981;SDS011;3018;48.730;9.336;2023-11-19T05:58:57;0.32;;;0.32;;
5981;SDS011;3018;48.730;9.336;2023-11-19T06:01:25;1.80;;;1.70;;
5981;SDS011;3018;48.730;9.336;2023-11-19T06:03:51;4.72;;;4.45;;
5981;SDS011;3018;48.730;9.336;2023-11-19T06:06:18;0.80;;;0.80;;
5981;SDS011;3018;48.730;9.336;2023-11-19T06:08:44;0.65;;;0.40;;
5981;SDS011;3018;48.730;9.336;2023-11-19T06:11:12;2.40;;;0.70;;
5981;SDS011;3018;48.730;9.336;2023-11-19T06:13:43;0.80;;;0.50;;
5981;SDS011;3018;48.730;9.336;2023-11-19T06:16:09;2.53;;;0.60;;
5981;SDS011;3018;48.730;9.336;2023-11-19T06:18:36;1.60;;;1.60;;
5981;SDS011;3018;48.730;9.336;2023-11-19T06:21:02;0.47;;;0.47;;
5981;SDS011;3018;48.730;9.336;2023-11-19T06:23:28;0.98;;;0.60;;
5981;SDS011;3018;48.730;9.336;2023-11-19T06:25:55;0.55;;;0.55;;
5981;SDS011;3018;48.730;9.336;2023-11-19T06:28:22;0.57;;;0.57;;
5981;SDS011;3018;48.730;9.336;2023-11-19T06:30:49;1.67;;;1.67;;
5981;SDS011;3018;48.730;9.336;2023-11-19T06:33:15;0.80;;;0.80;;
5981;SDS011;3018;48.730;9.336;2023-11-19T06:35:41;0.50;;;0.50;;
5981;SDS011;3018;48.730;9.336;2023-11-19T06:38:08;3.70;;;0.30;;
5981;SDS011;3018;48.730;9.336;2023-11-19T06:40:34;0.50;;;0.28;;
5981;SDS011;3018;48.730;9.336;2023-11-19T06:43:01;0.40;;;0.40;;
5981;SDS011;3018;48.730;9.336;2023-11-19T06:45:29;0.40;;;0.40;;
5981;SDS011;3018;48.730;9.336;2023-11-19T06:47:56;0.20;;;0.20;;
5981;SDS011;3018;48.730;9.336;2023-11-19T06:50:23;0.95;;;0.20;;
5981;SDS011;3018;48.730;9.336;2023-11-19T06:52:49;0.45;;;0.45;;
5981;SDS011;3018;48.730;9.336;2023-11-19T06:55:16;0.60;;;0.30;;
5981;SDS011;3018;48.730;9.336;2023-11-19T06:57:42;0.40;;;0.40;;
5981;SDS011;3018;48.730;9.336;2023-11-19T07:00:09;0.40;;;0.40;;
5981;SDS011;3018;48.730;9.336;2023-11-19T07:02:37;0.43;;;0.30;;
5981;SDS011;3018;48.730;9.336;2023-11-19T07:05:04;0.30;;;0.30;;
5981;SDS011;3018;48.730;9.336;2023-11-19T07:07:30;0.20;;;0.20;;
5981;SDS011;3018;48.730;9.336;2023-11-19T07:09:57;0.30;;;0.30;;
5981;SDS011;3018;48.730;9.336;2023-11-19T07:12:23;0.30;;;0.30;;
5981;SDS011;3018;48.730;9.336;2023-11-19T07:14:51;0.50;;;0.22;;
5981;SDS011;3018;48.730;9.336;2023-11-19T07:17:18;0.63;;;0.40;;
5981;SDS011;3018;48.730;9.336;2023-11-19T07:19:46;0.90;;;0.30;;
5981;SDS011;3018;48.730;9.336;2023-11-19T07:22:13;1.25;;;0.30;;
5981;SDS011;3018;48.730;9.336;2023-11-19T07:24:40;0.30;;;0.30;;
5981;SDS011;3018;48.730;9.336;2023-11-19T07:27:06;0.90;;;0.30;;
5981;SDS011;3018;48.730;9.336;2023-11-19T07:29:33;0.77;;;0.30;;
5981;SDS011;3018;48.730;9.336;2023-11-19T07:32:00;0.20;;;0.20;;
5981;SDS011;3018;48.730;9.336;2023-11-19T07:34:27;1.38;;;0.30;;
5981;SDS011;3018;48.730;9.336;2023-11-19T07:36:55;0.28;;;0.20;;
5981;SDS011;3018;48.730;9.336;2023-11-19T07:39:24;0.30;;;0.20;;
5981;SDS011;3018;48.730;9.336;2023-11-19T07:41:50;0.40;;;0.40;;
5981;SDS011;3018;48.730;9.336;2023-11-19T07:44:16;0.45;;;0.30;;
5981;SDS011;3018;48.730;9.336;2023-11-19T07:46:43;0.50;;;0.50;;
5981;SDS011;3018;48.730;9.336;2023-11-19T07:49:09;1.02;;;0.40;;
5981;SDS011;3018;48.730;9.336;2023-11-19T07:51:36;0.20;;;0.20;;
5981;SDS011;3018;48.730;9.336;2023-11-19T07:54:04;0.28;;;0.20;;
5981;SDS011;3018;48.730;9.336;2023-11-19T07:56:30;0.20;;;0.20;;
5981;SDS011;3018;48.730;9.336;2023-11-19T07:58:56;0.35;;;0.35;;
5981;SDS011;3018;48.730;9.336;2023-11-19T08:01:22;0.38;;;0.38;;
5981;SDS011;3018;48.730;9.336;2023-11-19T08:03:49;0.30;;;0.30;;
5981;SDS011;3018;48.730;9.336;2023-11-19T08:06:15;0.77;;;0.57;;
5981;SDS011;3018;48.730;9.336;2023-11-19T08:08:42;1.05;;;0.30;;
5981;SDS011;3018;48.730;9.336;2023-11-19T08:11:09;0.32;;;0.32;;
5981;SDS011;3018;48.730;9.336;2023-11-19T08:13:35;1.10;;;0.40;;
5981;SDS011;3018;48.730;9.336;2023-11-19T08:16:02;0.50;;;0.30;;
5981;SDS011;3018;48.730;9.336;2023-11-19T08:18:28;0.30;;;0.30;;
5981;SDS011;3018;48.730;9.336;2023-11-19T08:20:54;0.63;;;0.32;;
5981;SDS011;3018;48.730;9.336;2023-11-19T08:23:22;0.40;;;0.40;;
5981;SDS011;3018;48.730;9.336;2023-11-19T08:25:50;1.45;;;0.47;;
5981;SDS011;3018;48.730;9.336;2023-11-19T08:28:18;0.30;;;0.30;;
5981;SDS011;3018;48.730;9.336;2023-11-19T08:30:44;2.10;;;0.32;;
5981;SDS011;3018;48.730;9.336;2023-11-19T08:33:10;1.67;;;0.50;;
5981;SDS011;3018;48.730;9.336;2023-11-19T08:35:37;0.30;;;0.30;;
5981;SDS011;3018;48.730;9.336;2023-11-19T08:38:03;0.45;;;0.30;;
5981;SDS011;3018;48.730;9.336;2023-11-19T08:40:29;1.02;;;0.93;;
5981;SDS011;3018;48.730;9.336;2023-11-19T08:42:55;2.28;;;0.90;;
5981;SDS011;3018;48.730;9.336;2023-11-19T08:45:23;0.80;;;0.80;;
5981;SDS011;3018;48.730;9.336;2023-11-19T08:47:49;0.70;;;0.70;;
5981;SDS011;3018;48.730;9.336;2023-11-19T08:50:16;0.65;;;0.65;;
5981;SDS011;3018;48.730;9.336;2023-11-19T08:52:42;4.50;;;0.40;;
5981;SDS011;3018;48.730;9.336;2023-11-19T08:55:08;0.73;;;0.40;;
5981;SDS011;3018;48.730;9.336;2023-11-19T08:57:35;1.52;;;0.50;;
5981;SDS011;3018;48.730;9.336;2023-11-19T09:00:01;0.40;;;0.40;;
5981;SDS011;3018;48.730;9.336;2023-11-19T09:02:29;1.30;;;0.43;;
5981;SDS011;3018;48.730;9.336;2023-11-19T09:04:57;0.52;;;0.52;;
5981;SDS011;3018;48.730;9.336;2023-11-19T09:07:23;0.40;;;0.40;;
5981;SDS011;3018;48.730;9.336;2023-11-19T09:09:50;0.50;;;0.50;;
5981;SDS011;3018;48.730;9.336;2023-11-19T09:12:16;1.05;;;0.40;;
5981;SDS011;3018;48.730;9.336;2023-11-19T09:14:42;2.08;;;1.73;;
5981;SDS011;3018;48.730;9.336;2023-11-19T09:17:08;0.80;;;0.80;;
5981;SDS011;3018;48.730;9.336;2023-11-19T09:19:36;2.95;;;2.75;;
5981;SDS011;3018;48.730;9.336;2023-11-19T09:22:03;3.80;;;3.15;;
5981;SDS011;3018;48.730;9.336;2023-11-19T09:24:29;3.28;;;1.48;;
5981;SDS011;3018;48.730;9.336;2023-11-19T09:26:56;2.47;;;2.05;;
5981;SDS011;3018;48.730;9.336;2023-11-19T09:29:22;4.47;;;3.30;;
5981;SDS011;3018;48.730;9.336;2023-11-19T09:31:48;1.23;;;1.05;;
5981;SDS011;3018;48.730;9.336;2023-11-19T09:34:15;6.53;;;2.67;;
5981;SDS011;3018;48.730;9.336;2023-11-19T09:36:42;5.55;;;3.85;;
5981;SDS011;3018;48.730;9.336;2023-11-19T09:39:09;0.82;;;0.82;;
5981;SDS011;3018;48.730;9.336;2023-11-19T09:41:35;6.43;;;2.80;;
5981;SDS011;3018;48.730;9.336;2023-11-19T09:44:01;4.35;;;4.00;;
5981;SDS011;3018;48.730;9.336;2023-11-19T09:46:28;8.52;;;7.82;;
5981;SDS011;3018;48.730;9.336;2023-11-19T09:48:54;2.92;;;2.83;;
5981;SDS011;3018;48.730;9.336;2023-11-19T09:51:22;2.22;;;2.13;;
5981;SDS011;3018;48.730;9.336;2023-11-19T09:53:50;1.17;;;1.17;;
5981;SDS011;3018;48.730;9.336;2023-11-19T09:56:16;0.90;;;0.90;;
5981;SDS011;3018;48.730;9.336;2023-11-19T09:58:42;0.65;;;0.65;;
5981;SDS011;3018;48.730;9.336;2023-11-19T10:01:09;0.65;;;0.65;;
5981;SDS011;3018;48.730;9.336;2023-11-19T10:03:37;0.85;;;0.85;;
5981;SDS011;3018;48.730;9.336;2023-11-19T10:06:05;2.28;;;0.65;;
5981;SDS011;3018;48.730;9.336;2023-11-19T10:08:32;1.08;;;0.68;;
5981;SDS011;3018;48.730;9.336;2023-11-19T10:11:00;0.50;;;0.50;;
5981;SDS011;3018;48.730;9.336;2023-11-19T10:13:26;0.45;;;0.45;;
5981;SDS011;3018;48.730;9.336;2023-11-19T10:15:53;0.45;;;0.45;;
5981;SDS011;3018;48.730;9.336;2023-11-19T10:18:23;2.70;;;0.70;;
5981;SDS011;3018;48.730;9.336;2023-11-19T10:20:49;1.55;;;0.50;;
5981;SDS011;3018;48.730;9.336;2023-11-19T10:23:15;0.40;;;0.40;;
5981;SDS011;3018;48.730;9.336;2023-11-19T10:25:42;1.85;;;0.60;;
5981;SDS011;3018;48.730;9.336;2023-11-19T10:28:09;1.38;;;0.40;;
5981;SDS011;3018;48.730;9.336;2023-11-19T10:30:35;0.40;;;0.40;;
5981;SDS011;3018;48.730;9.336;2023-11-19T10:33:02;2.75;;;2.65;;
5981;SDS011;3018;48.730;9.336;2023-11-19T10:35:29;0.60;;;0.60;;
5981;SDS011;3018;48.730;9.336;2023-11-19T10:37:55;0.60;;;0.60;;
5981;SDS011;3018;48.730;9.336;2023-11-19T10:40:21;0.68;;;0.68;;
5981;SDS011;3018;48.730;9.336;2023-11-19T10:42:47;0.57;;;0.57;;
5981;SDS011;3018;48.730;9.336;2023-11-19T10:45:24;0.68;;;0.60;;
5981;SDS011;3018;48.730;9.336;2023-11-19T10:47:51;0.30;;;0.30;;
5981;SDS011;3018;48.730;9.336;2023-11-19T10:50:17;0.50;;;0.50;;
5981;SDS011;3018;48.730;9.336;2023-11-19T10:52:43;0.93;;;0.40;;
5981;SDS011;3018;48.730;9.336;2023-11-19T10:55:10;0.50;;;0.50;;
5981;SDS011;3018;48.730;9.336;2023-11-19T10:57:39;1.08;;;0.30;;
5981;SDS011;3018;48.730;9.336;2023-11-19T11:00:09;1.30;;;0.40;;
5981;SDS011;3018;48.730;9.336;2023-11-19T11:02:40;0.30;;;0.30;;
5981;SDS011;3018;48.730;9.336;2023-11-19T11:05:07;2.60;;;0.40;;
5981;SDS011;3018;48.730;9.336;2023-11-19T11:07:34;2.17;;;0.55;;
5981;SDS011;3018;48.730;9.336;2023-11-19T11:10:01;0.90;;;0.30;;
5981;SDS011;3018;48.730;9.336;2023-11-19T11:12:28;0.73;;;0.40;;
5981;SDS011;3018;48.730;9.336;2023-11-19T11:14:56;0.30;;;0.30;;
5981;SDS011;3018;48.730;9.336;2023-11-19T11:17:24;0.93;;;0.47;;
5981;SDS011;3018;48.730;9.336;2023-11-19T11:19:51;0.45;;;0.30;;
5981;SDS011;3018;48.730;9.336;2023-11-19T11:22:18;0.40;;;0.40;;
5981;SDS011;3018;48.730;9.336;2023-11-19T11:24:50;0.38;;;0.38;;
5981;SDS011;3018;48.730;9.336;2023-11-19T11:27:27;2.22;;;0.40;;
5981;SDS011;3018;48.730;9.336;2023-11-19T11:30:04;2.03;;;0.40;;
5981;SDS011;3018;48.730;9.336;2023-11-19T11:32:33;0.30;;;0.30;;
5981;SDS011;3018;48.730;9.336;2023-11-19T11:35:07;1.40;;;0.32;;
5981;SDS011;3018;48.730;9.336;2023-11-19T11:37:39;1.38;;;0.40;;
5981;SDS011;3018;48.730;9.336;2023-11-19T11:40:06;0.55;;;0.50;;
5981;SDS011;3018;48.730;9.336;2023-11-19T11:42:35;0.52;;;0.38;;
5981;SDS011;3018;48.730;9.336;2023-11-19T11:45:02;2.45;;;1.77;;
5981;SDS011;3018;48.730;9.336;2023-11-19T11:50:21;0.52;;;0.52;;
5981;SDS011;3018;48.730;9.336;2023-11-19T11:55:33;0.70;;;0.30;;
5981;SDS011;3018;48.730;9.336;2023-11-19T11:58:01;3.40;;;0.68;;
5981;SDS011;3018;48.730;9.336;2023-11-19T12:00:29;1.63;;;0.52;;
5981;SDS011;3018;48.730;9.336;2023-11-19T12:02:56;1.98;;;0.50;;
5981;SDS011;3018;48.730;9.336;2023-11-19T12:05:24;2.75;;;0.40;;
5981;SDS011;3018;48.730;9.336;2023-11-19T12:07:54;2.33;;;0.50;;
5981;SDS011;3018;48.730;9.336;2023-11-19T12:10:20;1.05;;;0.38;;
5981;SDS011;3018;48.730;9.336;2023-11-19T12:12:47;1.08;;;0.40;;
5981;SDS011;3018;48.730;9.336;2023-11-19T12:15:13;0.90;;;0.32;;
5981;SDS011;3018;48.730;9.336;2023-11-19T12:17:43;1.52;;;0.50;;
5981;SDS011;3018;48.730;9.336;2023-11-19T12:20:14;0.60;;;0.60;;
5981;SDS011;3018;48.730;9.336;2023-11-19T12:22:43;1.77;;;0.60;;
5981;SDS011;3018;48.730;9.336;2023-11-19T12:25:10;4.28;;;2.72;;
5981;SDS011;3018;48.730;9.336;2023-11-19T12:27:36;0.50;;;0.50;;
5981;SDS011;3018;48.730;9.336;2023-11-19T12:30:03;0.50;;;0.40;;
5981;SDS011;3018;48.730;9.336;2023-11-19T12:32:37;3.15;;;0.60;;
5981;SDS011;3018;48.730;9.336;2023-11-19T12:35:03;3.20;;;2.10;;
5981;SDS011;3018;48.730;9.336;2023-11-19T12:37:30;0.50;;;0.50;;
5981;SDS011;3018;48.730;9.336;2023-11-19T12:39:58;1.35;;;1.10;;
5981;SDS011;3018;48.730;9.336;2023-11-19T12:42:34;0.80;;;0.40;;
5981;SDS011;3018;48.730;9.336;2023-11-19T12:45:00;0.55;;;0.45;;
5981;SDS011;3018;48.730;9.336;2023-11-19T12:47:27;0.50;;;0.30;;
5981;SDS011;3018;48.730;9.336;2023-11-19T12:49:56;0.47;;;0.47;;
5981;SDS011;3018;48.730;9.336;2023-11-19T12:52:22;1.15;;;0.90;;
5981;SDS011;3018;48.730;9.336;2023-11-19T12:54:49;0.57;;;0.40;;
5981;SDS011;3018;48.730;9.336;2023-11-19T12:57:17;0.63;;;0.30;;
5981;SDS011;3018;48.730;9.336;2023-11-19T12:59:54;0.85;;;0.38;;
5981;SDS011;3018;48.730;9.336;2023-11-19T13:02:21;2.90;;;0.50;;
5981;SDS011;3018;48.730;9.336;2023-11-19T13:04:48;1.05;;;0.40;;
5981;SDS011;3018;48.730;9.336;2023-11-19T13:07:15;2.65;;;0.38;;
5981;SDS011;3018;48.730;9.336;2023-11-19T13:09:46;0.95;;;0.55;;
5981;SDS011;3018;48.730;9.336;2023-11-19T13:12:12;2.03;;;0.30;;
5981;SDS011;3018;48.730;9.336;2023-11-19T13:14:39;1.58;;;0.75;;
5981;SDS011;3018;48.730;9.336;2023-11-19T13:17:07;1.05;;;0.32;;
5981;SDS011;3018;48.730;9.336;2023-11-19T13:19:33;0.90;;;0.40;;
5981;SDS011;3018;48.730;9.336;2023-11-19T13:21:59;1.23;;;0.40;;
5981;SDS011;3018;48.730;9.336;2023-11-19T13:24:26;3.28;;;0.47;;
5981;SDS011;3018;48.730;9.336;2023-11-19T13:26:52;0.45;;;0.32;;
5981;SDS011;3018;48.730;9.336;2023-11-19T13:29:18;0.43;;;0.43;;
5981;SDS011;3018;48.730;9.336;2023-11-19T13:31:46;0.98;;;0.50;;
5981;SDS011;3018;48.730;9.336;2023-11-19T13:34:12;2.97;;;0.50;;
5981;SDS011;3018;48.730;9.336;2023-11-19T13:36:38;1.75;;;0.55;;
5981;SDS011;3018;48.730;9.336;2023-11-19T13:39:05;0.70;;;0.63;;
5981;SDS011;3018;48.730;9.336;2023-11-19T13:41:32;0.90;;;0.45;;
5981;SDS011;3018;48.730;9.336;2023-11-19T13:43:58;0.60;;;0.40;;
5981;SDS011;3018;48.730;9.336;2023-11-19T13:46:24;1.15;;;0.40;;
5981;SDS011;3018;48.730;9.336;2023-11-19T13:48:52;1.63;;;0.50;;
5981;SDS011;3018;48.730;9.336;2023-11-19T13:51:18;0.40;;;0.40;;
5981;SDS011;3018;48.730;9.336;2023-11-19T13:53:44;4.95;;;0.50;;
5981;SDS011;3018;48.730;9.336;2023-11-19T13:56:11;1.55;;;0.43;;
5981;SDS011;3018;48.730;9.336;2023-11-19T13:58:37;3.88;;;0.50;;
5981;SDS011;3018;48.730;9.336;2023-11-19T14:01:05;0.80;;;0.40;;
5981;SDS011;3018;48.730;9.336;2023-11-19T14:03:31;0.65;;;0.45;;
5981;SDS011;3018;48.730;9.336;2023-11-19T14:05:59;1.85;;;0.40;;
5981;SDS011;3018;48.730;9.336;2023-11-19T14:08:26;0.73;;;0.60;;
5981;SDS011;3018;48.730;9.336;2023-11-19T14:10:52;0.90;;;0.55;;
5981;SDS011;3018;48.730;9.336;2023-11-19T14:13:20;0.57;;;0.40;;
5981;SDS011;3018;48.730;9.336;2023-11-19T14:15:46;0.47;;;0.47;;
5981;SDS011;3018;48.730;9.336;2023-11-19T14:18:13;2.00;;;0.43;;
5981;SDS011;3018;48.730;9.336;2023-11-19T14:20:39;0.35;;;0.35;;
5981;SDS011;3018;48.730;9.336;2023-11-19T14:23:06;1.20;;;0.55;;
5981;SDS011;3018;48.730;9.336;2023-11-19T14:25:34;1.17;;;0.82;;
5981;SDS011;3018;48.730;9.336;2023-11-19T14:28:00;0.40;;;0.40;;
5981;SDS011;3018;48.730;9.336;2023-11-19T14:30:26;0.55;;;0.38;;
5981;SDS011;3018;48.730;9.336;2023-11-19T14:32:53;0.45;;;0.45;;
5981;SDS011;3018;48.730;9.336;2023-11-19T14:35:19;0.40;;;0.40;;
5981;SDS011;3018;48.730;9.336;2023-11-19T14:37:46;0.40;;;0.40;;
5981;SDS011;3018;48.730;9.336;2023-11-19T14:40:13;2.40;;;0.55;;
5981;SDS011;3018;48.730;9.336;2023-11-19T14:42:39;1.02;;;0.50;;
5981;SDS011;3018;48.730;9.336;2023-11-19T14:45:06;0.50;;;0.47;;
5981;SDS011;3018;48.730;9.336;2023-11-19T14:47:36;1.42;;;0.40;;
5981;SDS011;3018;48.730;9.336;2023-11-19T14:50:03;1.08;;;0.50;;
5981;SDS011;3018;48.730;9.336;2023-11-19T14:52:30;1.27;;;0.40;;
5981;SDS011;3018;48.730;9.336;2023-11-19T14:54:56;0.40;;;0.40;;
5981;SDS011;3018;48.730;9.336;2023-11-19T14:57:24;0.93;;;0.40;;
5981;SDS011;3018;48.730;9.336;2023-11-19T14:59:50;1.65;;;0.47;;
5981;SDS011;3018;48.730;9.336;2023-11-19T15:02:16;0.50;;;0.40;;
5981;SDS011;3018;48.730;9.336;2023-11-19T15:04:44;2.55;;;0.60;;
5981;SDS011;3018;48.730;9.336;2023-11-19T15:07:10;0.40;;;0.40;;
5981;SDS011;3018;48.730;9.336;2023-11-19T15:09:36;2.17;;;0.40;;
5981;SDS011;3018;48.730;9.336;2023-11-19T15:12:03;1.35;;;0.52;;
5981;SDS011;3018;48.730;9.336;2023-11-19T15:14:31;1.08;;;0.50;;
5981;SDS011;3018;48.730;9.336;2023-11-19T15:16:57;1.65;;;0.50;;
5981;SDS011;3018;48.730;9.336;2023-11-19T15:19:23;0.40;;;0.40;;